Time;durP1;ratioP1;P1;durP2;ratioP2;P2;SDS_P1;SDS_P2;PMS_P1;PMS_P2;Temp;Humidity;BMP_temperature;BMP_pressure;BME280_temperature;BME280_humidity;BME280_pressure;Samples;Min_cycle;Max_cycle;Signal;HPM_P1;HPM_P2
2022/09/04 00:01:43;;;;;;;21.52;12.68;;;;;;;17.15;83.56;101251.91;5092666;28;20379;-69
2022/09/04 00:04:23;;;;;;;20.15;12.73;;;;;;;17.06;83.48;101256.81;5092074;28;20239;-69
2022/09/04 00:07:13;;;;;;;25.65;13.80;;;;;;;16.95;83.35;101256.75;5092327;28;20115;-69
2022/09/04 00:09:50;;;;;;;22.65;12.32;;;;;;;16.91;84.28;101266.38;5092493;28;20039;-69
2022/09/04 00:12:22;;;;;;;21.73;12.02;;;;;;;16.93;84.87;101266.97;5092448;28;20111;-69
2022/09/04 00:15:01;;;;;;;20.13;12.70;;;;;;;17.00;84.63;101273.06;5092485;28;20024;-69
2022/09/04 00:17:36;;;;;;;20.67;12.20;;;;;;;16.98;85.26;101261.72;5092392;28;20475;-69
2022/09/04 00:20:23;;;;;;;20.80;12.80;;;;;;;16.88;84.42;101261.44;5092083;28;20115;-69
2022/09/04 00:22:59;;;;;;;21.40;13.27;;;;;;;16.74;84.96;101261.59;5092061;28;20032;-69
2022/09/04 00:25:33;;;;;;;20.73;13.10;;;;;;;16.69;85.75;101279.44;5092047;28;20036;-69
2022/09/04 00:28:08;;;;;;;20.85;13.35;;;;;;;16.70;85.93;101281.13;5092064;28;20024;-69
2022/09/04 00:30:38;;;;;;;21.52;13.07;;;;;;;16.70;85.95;101271.16;5092167;28;20036;-69
2022/09/04 00:33:18;;;;;;;20.48;12.93;;;;;;;16.77;86.23;101271.94;5091804;28;20082;-69
2022/09/04 00:35:53;;;;;;;23.63;13.85;;;;;;;16.79;85.96;101277.94;5091872;28;20020;-69
2022/09/04 00:38:24;;;;;;;18.63;12.00;;;;;;;16.78;86.48;101286.22;5092025;28;20498;-70
2022/09/04 00:41:09;;;;;;;20.25;12.35;;;;;;;16.76;85.36;101281.00;5091783;28;20475;-69
2022/09/04 00:44:03;;;;;;;22.05;13.18;;;;;;;16.73;85.83;101283.34;5091697;28;20020;-69
2022/09/04 00:46:47;;;;;;;20.80;12.95;;;;;;;16.65;85.54;101282.59;5091433;28;20036;-69
2022/09/04 00:49:35;;;;;;;24.15;13.73;;;;;;;16.58;86.50;101286.44;5090628;28;20047;-69
2022/09/04 00:52:24;;;;;;;22.50;13.15;;;;;;;16.57;87.05;101292.88;5092124;28;20032;-69
2022/09/04 00:55:05;;;;;;;19.58;12.75;;;;;;;16.51;86.85;101293.78;5091593;28;20672;-69
2022/09/04 00:58:02;;;;;;;21.08;12.75;;;;;;;16.42;87.25;101288.69;5091642;28;20522;-69
2022/09/04 01:00:29;;;;;;;20.45;12.02;;;;;;;16.33;87.43;101287.34;5091215;28;20102;-69
2022/09/04 01:03:06;;;;;;;19.73;11.82;;;;;;;16.32;87.36;101301.88;5091236;28;20027;-69
2022/09/04 01:05:32;;;;;;;22.05;12.95;;;;;;;16.33;88.44;101305.38;5072941;28;20056;-70
2022/09/04 01:08:26;;;;;;;20.87;12.60;;;;;;;16.28;88.02;101302.53;5072968;28;20027;-69
2022/09/04 01:11:30;;;;;;;22.98;13.75;;;;;;;16.25;87.81;101314.56;5091169;28;20356;-69
2022/09/04 01:14:25;;;;;;;21.05;11.23;;;;;;;16.27;88.97;101303.56;5091002;28;20115;-69
2022/09/04 01:17:04;;;;;;;19.55;12.80;;;;;;;16.21;89.05;101306.09;5091049;28;20043;-69
2022/09/04 01:19:41;;;;;;;24.00;14.38;;;;;;;16.09;88.83;101312.44;5091198;28;20483;-69
2022/09/04 01:22:45;;;;;;;21.25;11.88;;;;;;;16.05;89.30;101317.44;5072761;28;20570;-69
2022/09/04 01:25:26;;;;;;;23.10;12.68;;;;;;;16.08;89.88;101327.75;5090938;28;20069;-69
2022/09/04 01:27:59;;;;;;;19.95;13.25;;;;;;;16.11;89.85;101327.34;5091096;28;20112;-69
2022/09/04 01:30:24;;;;;;;19.55;11.35;;;;;;;16.13;89.55;101327.91;5090856;28;20052;-69
2022/09/04 01:33:03;;;;;;;21.55;13.57;;;;;;;16.11;88.66;101330.03;5091174;28;20081;-69
2022/09/04 01:35:51;;;;;;;19.50;11.52;;;;;;;16.12;89.45;101322.78;5090789;28;20154;-69
2022/09/04 01:38:27;;;;;;;21.52;12.25;;;;;;;16.12;89.82;101320.06;5079570;28;20083;-69
2022/09/04 01:40:57;;;;;;;38.92;12.25;;;;;;;16.09;90.16;101326.72;5091036;28;20370;-69
2022/09/04 01:43:23;;;;;;;20.13;12.48;;;;;;;15.98;89.51;101313.97;5090601;28;20475;-69
2022/09/04 01:46:06;;;;;;;23.83;14.27;;;;;;;16.07;90.01;101323.44;5090265;28;20038;-69
2022/09/04 01:48:41;;;;;;;20.88;13.70;;;;;;;16.06;90.56;101334.41;5090510;28;20024;-69
2022/09/04 01:51:23;;;;;;;19.65;12.75;;;;;;;16.04;90.21;101329.25;5090550;28;20495;-69
2022/09/04 01:54:04;;;;;;;21.15;13.23;;;;;;;15.97;90.41;101337.38;5090579;28;20031;-69
2022/09/04 01:57:19;;;;;;;22.00;13.40;;;;;;;15.87;90.41;101334.34;5090343;28;20058;-69
2022/09/04 01:59:59;;;;;;;21.80;13.23;;;;;;;15.74;91.65;101340.66;5067631;28;20075;-69
2022/09/04 02:03:09;;;;;;;24.30;12.43;;;;;;;15.71;91.16;101334.91;5090364;28;20465;-69
2022/09/04 02:06:00;;;;;;;19.88;12.57;;;;;;;15.70;91.60;101341.34;5089911;28;20070;-69
2022/09/04 02:08:47;;;;;;;22.25;13.18;;;;;;;15.71;91.27;101351.84;5090248;28;20016;-69
2022/09/04 02:11:17;;;;;;;21.65;13.45;;;;;;;15.69;91.07;101351.28;5090171;28;20048;-69
2022/09/04 02:14:07;;;;;;;20.42;13.20;;;;;;;15.64;90.62;101351.06;5090032;28;20147;-69
2022/09/04 02:17:01;;;;;;;19.33;12.80;;;;;;;15.61;91.95;101346.09;5090084;28;20523;-69
2022/09/04 02:19:50;;;;;;;24.15;13.77;;;;;;;15.65;92.42;101366.16;5090422;28;20032;-69
2022/09/04 02:22:27;;;;;;;25.45;14.63;;;;;;;15.67;92.39;101366.78;5089889;28;20447;-70
2022/09/04 02:25:14;;;;;;;24.08;14.63;;;;;;;15.74;93.00;101361.34;5089895;28;20066;-69
2022/09/04 02:27:58;;;;;;;22.50;12.65;;;;;;;15.82;92.73;101360.25;5089686;28;20027;-69
2022/09/04 02:30:23;;;;;;;22.60;13.77;;;;;;;15.86;92.10;101364.19;5089855;28;20031;-69
2022/09/04 02:32:59;;;;;;;26.48;13.10;;;;;;;15.75;90.80;101371.09;5089599;28;20023;-69
2022/09/04 02:35:37;;;;;;;21.13;13.02;;;;;;;15.67;91.17;101377.53;5089622;28;20105;-69
2022/09/04 02:38:26;;;;;;;20.65;12.15;;;;;;;15.61;91.77;101378.38;5089741;28;20512;-69
2022/09/04 02:41:08;;;;;;;19.30;12.02;;;;;;;15.57;92.25;101372.63;5089425;28;20449;-69
2022/09/04 02:43:40;;;;;;;23.33;14.30;;;;;;;15.66;94.01;101369.66;5089882;28;20028;-69
2022/09/04 02:46:17;;;;;;;24.88;14.20;;;;;;;15.71;93.68;101368.00;5089391;28;20391;-69
2022/09/04 02:49:21;;;;;;;20.75;13.90;;;;;;;15.65;91.90;101374.22;5089520;28;20107;-69
2022/09/04 02:52:10;;;;;;;24.77;13.40;;;;;;;15.57;91.68;101377.19;5089716;28;20073;-69
2022/09/04 02:55:07;;;;;;;25.33;15.95;;;;;;;15.59;92.73;101380.47;5089381;28;20034;-69
2022/09/04 02:57:53;;;;;;;21.95;14.68;;;;;;;15.68;94.18;101389.09;5089256;28;20153;-69
2022/09/04 03:00:35;;;;;;;23.48;13.48;;;;;;;15.68;94.44;101376.47;5089359;28;20024;-69
2022/09/04 03:03:10;;;;;;;21.63;12.27;;;;;;;15.72;94.97;101385.78;5089154;28;20097;-69
2022/09/04 03:06:10;;;;;;;22.38;13.45;;;;;;;15.76;94.29;101387.00;5089090;28;20108;-69
2022/09/04 03:08:43;;;;;;;20.08;12.35;;;;;;;15.77;94.92;101390.50;5084457;28;20040;-69
2022/09/04 03:11:20;;;;;;;23.17;13.75;;;;;;;15.78;95.18;101392.16;5089033;28;20479;-69
2022/09/04 03:13:55;;;;;;;20.70;14.10;;;;;;;15.80;94.86;101397.31;5088725;28;20032;-69
2022/09/04 03:16:46;;;;;;;22.80;14.27;;;;;;;15.82;94.80;101393.34;5089108;28;20555;-69
2022/09/04 03:19:35;;;;;;;20.33;11.63;;;;;;;15.86;94.31;101391.06;5089002;28;20514;-69
2022/09/04 03:22:27;;;;;;;25.27;13.45;;;;;;;15.89;94.21;101391.44;5088961;28;20024;-69
2022/09/04 03:25:17;;;;;;;19.33;11.57;;;;;;;15.84;93.00;101388.59;5057229;28;20040;-69
2022/09/04 03:27:42;;;;;;;18.67;11.75;;;;;;;15.77;93.12;101385.13;5089086;28;20424;-69
2022/09/04 03:30:10;;;;;;;21.50;13.43;;;;;;;15.76;95.24;101400.44;5089345;28;20036;-69
2022/09/04 03:32:53;;;;;;;19.85;12.55;;;;;;;15.80;95.43;101398.16;5088920;28;20098;-69
2022/09/04 03:35:32;;;;;;;21.10;12.43;;;;;;;15.80;95.03;101394.63;5089178;28;20024;-69
2022/09/04 03:38:00;;;;;;;19.10;11.93;;;;;;;15.68;92.56;101395.28;5088637;28;20085;-69
2022/09/04 03:40:49;;;;;;;20.17;11.93;;;;;;;15.51;93.29;101389.63;5088950;28;20034;-69
2022/09/04 03:43:40;;;;;;;19.73;12.15;;;;;;;15.41;94.26;101389.25;5088847;28;20030;-69
2022/09/04 03:46:20;;;;;;;18.70;11.88;;;;;;;15.41;93.15;101401.88;5088683;28;20043;-69
2022/09/04 03:48:51;;;;;;;17.98;11.52;;;;;;;15.33;94.98;101401.09;5089060;28;20132;-69
2022/09/04 03:51:52;;;;;;;22.20;13.25;;;;;;;15.28;94.71;101400.91;5088692;28;20032;-69
2022/09/04 03:54:51;;;;;;;26.90;14.05;;;;;;;15.26;94.97;101410.22;5070484;28;20047;-64
2022/09/04 03:57:30;;;;;;;19.60;11.98;;;;;;;15.21;95.20;101408.16;5088676;28;20028;-64
2022/09/04 04:00:02;;;;;;;21.83;11.95;;;;;;;15.17;95.40;101415.03;5088668;28;20107;-64
2022/09/04 04:02:36;;;;;;;21.08;12.18;;;;;;;15.12;94.60;101412.97;5089069;28;20028;-64
2022/09/04 04:05:12;;;;;;;21.13;12.60;;;;;;;15.05;95.78;101417.53;5088375;28;20074;-64
2022/09/04 04:08:07;;;;;;;20.67;12.85;;;;;;;15.03;96.43;101408.03;5088781;28;20034;-65
2022/09/04 04:11:06;;;;;;;18.02;12.38;;;;;;;15.06;96.37;101410.28;5088787;28;20603;-65
2022/09/04 04:13:44;;;;;;;19.63;12.48;;;;;;;14.97;97.00;101398.97;5088656;28;20024;-64
2022/09/04 04:16:44;;;;;;;19.65;12.73;;;;;;;15.13;96.25;101424.53;5088641;28;20031;-64
2022/09/04 04:19:24;;;;;;;21.40;13.23;;;;;;;15.11;96.33;101421.22;5088365;28;20028;-64
2022/09/04 04:22:07;;;;;;;20.13;13.60;;;;;;;15.10;96.00;101430.34;5088414;28;20502;-64
2022/09/04 04:24:49;;;;;;;20.70;12.25;;;;;;;15.06;96.62;101435.31;5089650;28;20036;-64
2022/09/04 04:27:42;;;;;;;21.83;13.70;;;;;;;15.06;96.92;101434.47;5092085;28;20029;-64
2022/09/04 04:30:13;;;;;;;18.40;10.98;;;;;;;15.03;95.19;101438.41;5091622;28;20030;-64
2022/09/04 04:33:07;;;;;;;17.48;10.95;;;;;;;15.02;95.64;101446.69;5092012;28;20038;-64
2022/09/04 04:35:43;;;;;;;21.23;12.45;;;;;;;15.02;96.54;101444.00;5091803;28;20032;-64
2022/09/04 04:38:11;;;;;;;23.55;11.27;;;;;;;14.99;96.91;101450.63;5090644;28;20130;-64
2022/09/04 04:41:01;;;;;;;21.65;12.90;;;;;;;15.00;96.32;101454.13;5091851;28;20043;-64
2022/09/04 04:43:56;;;;;;;19.33;11.70;;;;;;;14.96;95.47;101442.16;5091757;28;20039;-65
2022/09/04 04:46:33;;;;;;;18.38;11.40;;;;;;;14.92;95.70;101449.81;5049131;28;20491;-64
2022/09/04 04:49:04;;;;;;;21.65;12.05;;;;;;;14.89;96.28;101451.06;5091665;28;20032;-64
2022/09/04 04:51:48;;;;;;;18.58;11.57;;;;;;;14.86;96.95;101459.53;5091735;28;20495;-64
2022/09/04 04:54:42;;;;;;;19.25;11.75;;;;;;;14.88;97.31;101451.25;5091934;28;20032;-64
2022/09/04 04:57:26;;;;;;;18.27;11.68;;;;;;;14.91;96.88;101453.53;5091537;28;20024;-64
2022/09/04 05:00:17;;;;;;;19.52;11.95;;;;;;;14.94;96.78;101455.00;5073312;28;20031;-65
2022/09/04 05:03:08;;;;;;;19.40;12.27;;;;;;;15.01;97.99;101462.00;5091221;28;20024;-65
2022/09/04 05:05:57;;;;;;;20.02;11.57;;;;;;;15.03;96.23;101461.75;5091139;28;20044;-64
2022/09/04 05:08:32;;;;;;;20.83;11.55;;;;;;;14.99;95.62;101474.00;5091449;28;20058;-65
2022/09/04 05:11:09;;;;;;;19.38;11.40;;;;;;;14.95;96.07;101462.81;5091273;28;20491;-65
2022/09/04 05:14:22;;;;;;;23.10;11.98;;;;;;;14.95;95.79;101475.44;5091283;28;20031;-64
2022/09/04 05:17:00;;;;;;;17.83;11.02;;;;;;;15.00;97.60;101483.69;5091329;28;20095;-65
2022/09/04 05:19:47;;;;;;;19.02;11.48;;;;;;;15.09;99.22;101482.41;5091195;28;20028;-65
2022/09/04 05:22:23;;;;;;;23.05;13.70;;;;;;;15.16;99.68;101483.22;5091187;28;20284;-64
2022/09/04 05:25:20;;;;;;;18.90;11.30;;;;;;;15.18;97.80;101481.16;5090905;28;20034;-64
2022/09/04 05:28:04;;;;;;;18.02;11.57;;;;;;;15.12;97.90;101480.13;5091100;28;20177;-64
2022/09/04 05:30:46;;;;;;;21.92;11.40;;;;;;;15.13;97.47;101497.06;5090994;28;20035;-65
2022/09/04 05:33:47;;;;;;;22.60;11.50;;;;;;;15.17;97.37;101502.84;5090659;28;20413;-64
2022/09/04 05:36:27;;;;;;;18.48;11.07;;;;;;;15.23;99.40;101497.47;5090564;28;20568;-64
2022/09/04 05:39:05;;;;;;;19.70;12.00;;;;;;;15.31;99.56;101496.41;5090793;28;20039;-65
2022/09/04 05:41:43;;;;;;;24.50;13.15;;;;;;;15.39;100.00;101508.78;5090674;28;20055;-65
2022/09/04 05:44:38;;;;;;;19.08;12.32;;;;;;;15.46;99.79;101512.28;5091033;28;20408;-64
2022/09/04 05:47:42;;;;;;;19.50;11.85;;;;;;;15.54;100.00;101525.47;5082853;28;20437;-65
2022/09/04 05:50:31;;;;;;;22.55;14.18;;;;;;;15.62;99.67;101527.13;5090529;28;20077;-64
2022/09/04 05:53:20;;;;;;;20.77;12.57;;;;;;;15.64;98.78;101525.84;5090598;28;20024;-64
2022/09/04 05:56:04;;;;;;;21.65;13.27;;;;;;;15.69;99.30;101531.47;5079338;28;20028;-65
2022/09/04 05:59:06;;;;;;;21.83;13.30;;;;;;;15.78;99.27;101540.09;5090330;28;20471;-65
2022/09/04 06:01:34;;;;;;;;;;;;;;;15.86;96.37;101537.16;5090890;28;20020;-65
2022/09/04 06:04:24;;;;;;;21.58;13.63;;;;;;;15.91;98.71;101547.28;5090218;28;19927;-64
2022/09/04 06:07:16;;;;;;;21.98;14.25;;;;;;;15.98;98.86;101543.50;5090193;28;20047;-64
2022/09/04 06:09:44;;;;;;;21.08;12.82;;;;;;;16.05;99.17;101542.63;5090212;28;20043;-64
2022/09/04 06:12:36;;;;;;;21.85;12.60;;;;;;;16.13;99.45;101542.38;5090216;28;20111;-64
2022/09/04 06:15:18;;;;;;;20.17;12.93;;;;;;;16.21;99.29;101550.19;5090587;28;20073;-65
2022/09/04 06:18:02;;;;;;;20.25;13.52;;;;;;;16.26;99.65;101547.69;5089997;28;20028;-64
2022/09/04 06:20:54;;;;;;;21.17;12.80;;;;;;;16.34;99.93;101549.28;5089902;28;20134;-64
2022/09/04 06:23:25;;;;;;;19.33;11.88;;;;;;;16.39;99.94;101552.16;5090009;28;20414;-65
2022/09/04 06:26:03;;;;;;;17.67;11.27;;;;;;;16.46;99.47;101550.25;5089804;28;20024;-65
2022/09/04 06:28:55;;;;;;;19.27;11.80;;;;;;;16.52;99.63;101554.75;5089816;28;20437;-64
2022/09/04 06:31:21;;;;;;;18.42;11.05;;;;;;;16.61;99.49;101557.97;5089589;28;20498;-64
2022/09/04 06:33:58;;;;;;;17.33;10.70;;;;;;;16.67;99.54;101559.81;5089356;28;20036;-64
2022/09/04 06:36:24;;;;;;;19.63;11.77;;;;;;;16.74;99.70;101557.06;5089601;28;20282;-64
2022/09/04 06:39:21;;;;;;;19.15;12.60;;;;;;;16.80;99.08;101561.59;5089458;28;20105;-64
2022/09/04 06:41:46;;;;;;;21.95;13.30;;;;;;;16.87;99.04;101559.66;5089598;28;20021;-64
2022/09/04 06:44:43;;;;;;;19.60;13.57;;;;;;;16.93;98.94;101569.56;5089397;28;20026;-64
2022/09/04 06:47:53;;;;;;;19.73;12.23;;;;;;;17.00;98.56;101569.50;5088564;28;20290;-64
2022/09/04 06:50:23;;;;;;;19.85;13.20;;;;;;;17.02;98.69;101564.72;5074905;28;20410;-65
2022/09/04 06:52:59;;;;;;;19.73;11.70;;;;;;;17.13;98.83;101573.94;5089377;28;20658;-64
2022/09/04 06:55:32;;;;;;;23.95;12.82;;;;;;;17.23;99.27;101574.25;5089318;28;20047;-64
2022/09/04 06:58:37;;;;;;;19.27;12.90;;;;;;;17.33;98.70;101574.56;5089499;28;20024;-65
2022/09/04 07:01:10;;;;;;;18.73;11.20;;;;;;;17.45;98.31;101574.66;5089226;28;20105;-65
2022/09/04 07:03:54;;;;;;;20.92;13.23;;;;;;;17.56;97.91;101571.19;5089013;28;20024;-65
2022/09/04 07:06:58;;;;;;;21.02;11.93;;;;;;;17.67;97.46;101572.31;5088866;28;20028;-64
2022/09/04 07:09:31;;;;;;;17.05;11.10;;;;;;;17.79;97.44;101584.03;5064801;28;20495;-64
2022/09/04 07:12:35;;;;;;;17.63;10.50;;;;;;;17.85;96.43;101576.91;5092799;28;20058;-65
2022/09/04 07:15:23;;;;;;;17.45;9.88;;;;;;;17.98;96.41;101578.63;5084932;28;20048;-64
2022/09/04 07:18:06;;;;;;;21.75;12.05;;;;;;;18.05;96.02;101577.47;5089055;28;20952;-64
2022/09/04 07:20:56;;;;;;;17.23;11.07;;;;;;;18.17;96.26;101586.41;5089080;28;20119;-64
2022/09/04 07:23:49;;;;;;;17.85;11.15;;;;;;;18.29;95.14;101596.47;5089020;28;20024;-64
2022/09/04 07:26:43;;;;;;;21.92;11.88;;;;;;;18.44;95.23;101598.72;5088912;28;20036;-64
2022/09/04 07:29:36;;;;;;;17.80;10.68;;;;;;;18.54;93.77;101596.28;5089131;28;20035;-64
2022/09/04 07:32:14;;;;;;;17.90;12.07;;;;;;;18.62;93.38;101602.16;5088698;28;20028;-64
2022/09/04 07:34:56;;;;;;;16.98;11.32;;;;;;;18.70;93.33;101595.59;5089111;28;20438;-64
2022/09/04 07:37:57;;;;;;;22.48;12.32;;;;;;;18.80;93.01;101595.06;5089002;28;20035;-64
2022/09/04 07:40:41;;;;;;;20.23;11.23;;;;;;;18.92;92.63;101601.31;5088911;28;20024;-64
2022/09/04 07:43:19;;;;;;;17.67;10.82;;;;;;;18.99;91.80;101593.06;5087800;28;20430;-64
2022/09/04 07:45:53;;;;;;;18.83;11.93;;;;;;;19.09;91.45;101597.91;5088785;28;20195;-64
2022/09/04 07:48:30;;;;;;;16.70;10.48;;;;;;;19.18;90.60;101602.75;5089085;28;20094;-64
2022/09/04 07:51:09;;;;;;;18.75;10.20;;;;;;;19.24;90.75;101590.97;5088651;28;20028;-65
2022/09/04 07:54:22;;;;;;;18.23;10.45;;;;;;;19.44;89.62;101606.00;5089055;28;20489;-63
2022/09/04 07:57:17;;;;;;;17.95;9.73;;;;;;;19.62;88.66;101607.72;5016949;28;20046;-63
2022/09/04 08:00:00;;;;;;;17.73;10.82;;;;;;;19.77;88.42;101610.78;5092341;28;20020;-63
2022/09/04 08:02:40;;;;;;;18.10;10.80;;;;;;;19.92;86.89;101621.13;5092968;28;20352;-63
2022/09/04 08:05:13;;;;;;;21.42;10.27;;;;;;;20.04;86.45;101608.38;5092683;28;20044;-63
2022/09/04 08:07:38;;;;;;;16.77;10.07;;;;;;;20.19;85.61;101618.66;5092839;28;20040;-63
2022/09/04 08:10:31;;;;;;;16.73;10.47;;;;;;;20.34;85.86;101624.38;5092799;28;20367;-63
2022/09/04 08:13:08;;;;;;;18.35;10.52;;;;;;;20.59;85.04;101625.91;5092665;28;20254;-64
2022/09/04 08:15:42;;;;;;;21.75;12.05;;;;;;;20.86;83.74;101631.53;5092687;28;20104;-63
2022/09/04 08:18:21;;;;;;;18.73;9.75;;;;;;;21.07;82.83;101624.53;5092699;28;20020;-63
2022/09/04 08:21:05;;;;;;;17.08;10.35;;;;;;;21.47;79.71;101625.41;5092489;28;20032;-63
2022/09/04 08:23:51;;;;;;;16.02;8.98;;;;;;;22.33;77.30;101633.78;5092769;28;20042;-63
2022/09/04 08:26:36;;;;;;;16.85;9.95;;;;;;;23.51;71.20;101637.47;5092568;28;20085;-65
2022/09/04 08:29:32;;;;;;;15.05;9.63;;;;;;;24.44;70.31;101633.97;5092659;28;20043;-65
2022/09/04 08:32:02;;;;;;;16.33;10.40;;;;;;;25.42;64.55;101624.69;5092395;28;20162;-65
2022/09/04 08:34:52;;;;;;;13.63;8.27;;;;;;;25.99;63.91;101633.47;5092678;28;20024;-65
2022/09/04 08:37:27;;;;;;;15.75;9.98;;;;;;;25.71;62.63;101641.25;5092140;28;20055;-65
2022/09/04 08:40:12;;;;;;;15.27;8.95;;;;;;;25.02;66.50;101641.91;5092349;28;20031;-65
2022/09/04 08:43:02;;;;;;;16.25;8.52;;;;;;;24.42;66.34;101641.63;5092368;28;20043;-65
2022/09/04 08:45:37;;;;;;;13.23;7.65;;;;;;;23.99;67.31;101641.78;5092050;28;20020;-65
2022/09/04 08:48:36;;;;;;;15.43;8.90;;;;;;;23.71;68.40;101644.91;5092128;28;20036;-65
2022/09/04 08:51:49;;;;;;;14.98;7.95;;;;;;;23.52;69.99;101644.53;5091995;28;20036;-65
2022/09/04 08:54:36;;;;;;;13.80;7.75;;;;;;;23.40;70.08;101650.19;5091786;28;20115;-65
2022/09/04 08:57:16;;;;;;;13.43;7.00;;;;;;;23.33;69.75;101647.69;5091570;28;20367;-65
2022/09/04 08:59:51;;;;;;;12.75;7.07;;;;;;;23.26;68.30;101655.25;5091826;28;20467;-65
2022/09/04 09:02:19;;;;;;;12.25;6.75;;;;;;;23.22;68.06;101654.16;5091829;28;20085;-65
2022/09/04 09:05:18;;;;;;;13.07;7.95;;;;;;;23.23;69.27;101655.78;5091590;28;20051;-65
2022/09/04 09:07:58;;;;;;;11.70;6.93;;;;;;;23.21;68.96;101652.50;5091565;28;20123;-65
2022/09/04 09:10:29;;;;;;;12.82;7.15;;;;;;;23.22;69.28;101659.59;5091153;28;20032;-65
2022/09/04 09:13:31;;;;;;;14.63;8.85;;;;;;;23.23;69.33;101661.22;5091667;28;20032;-66
2022/09/04 09:16:34;;;;;;;15.75;7.63;;;;;;;23.31;69.95;101654.47;5073354;28;20440;-65
2022/09/04 09:19:10;;;;;;;12.35;6.50;;;;;;;23.46;68.82;101653.78;5091691;28;20293;-65
2022/09/04 09:22:11;;;;;;;13.05;6.85;;;;;;;23.53;68.09;101660.63;5091478;28;20020;-66
2022/09/04 09:24:52;;;;;;;13.98;7.05;;;;;;;23.57;68.30;101647.28;5073294;28;20048;-66
2022/09/04 09:27:33;;;;;;;15.52;7.85;;;;;;;23.72;68.87;101652.03;5091510;28;20024;-66
2022/09/04 09:30:06;;;;;;;13.02;7.75;;;;;;;23.73;67.92;101637.31;5090613;28;20035;-65
2022/09/04 09:32:52;;;;;;;14.60;8.30;;;;;;;23.88;67.52;101655.63;5090762;28;20103;-66
2022/09/04 09:35:56;;;;;;;12.73;6.70;;;;;;;23.97;68.29;101651.28;5090810;28;20036;-68
2022/09/04 09:38:46;;;;;;;10.30;6.55;;;;;;;24.10;67.11;101645.34;5090889;28;20027;-68
2022/09/04 09:41:29;;;;;;;13.73;7.10;;;;;;;24.22;67.16;101648.66;5090698;28;20028;-68
2022/09/04 09:44:03;;;;;;;12.95;6.47;;;;;;;24.28;66.03;101654.94;5090749;28;20085;-68
2022/09/04 09:47:26;;;;;;;11.85;7.00;;;;;;;24.34;66.29;101647.59;5090630;28;20032;-68
2022/09/04 09:50:19;;;;;;;9.23;5.72;;;;;;;24.35;66.10;101650.06;4969063;28;20113;-68
2022/09/04 09:53:22;;;;;;;10.82;5.40;;;;;;;24.42;64.89;101647.06;4951509;28;20039;-68
2022/09/04 09:56:00;;;;;;;5.63;3.90;;;;;;;24.52;63.91;101657.19;5090536;28;20028;-68
2022/09/04 09:59:02;;;;;;;7.53;4.65;;;;;;;24.54;63.26;101655.03;5090805;28;20020;-68
2022/09/04 10:01:27;;;;;;;9.27;5.83;;;;;;;24.67;62.87;101652.56;5091678;28;20035;-69
2022/09/04 10:04:33;;;;;;;10.52;6.40;;;;;;;24.69;63.31;101653.13;5076027;28;20043;-68
2022/09/04 10:07:18;;;;;;;11.77;6.10;;;;;;;24.70;61.82;101657.47;5094231;28;20020;-70
2022/09/04 10:10:05;;;;;;;11.73;6.78;;;;;;;24.77;62.68;101651.75;5094078;28;20475;-69
2022/09/04 10:12:45;;;;;;;11.00;7.07;;;;;;;24.82;62.06;101646.31;5094224;28;20059;-69
2022/09/04 10:15:13;;;;;;;12.73;6.60;;;;;;;24.81;61.46;101643.84;5093203;28;20036;-70
2022/09/04 10:18:00;;;;;;;10.43;6.45;;;;;;;24.83;63.21;101644.38;5094369;28;20042;-69
2022/09/04 10:20:45;;;;;;;8.05;5.03;;;;;;;24.92;62.20;101645.50;5094022;28;20028;-70
2022/09/04 10:23:10;;;;;;;8.07;4.55;;;;;;;25.03;59.16;101646.31;5093160;28;20074;-70
2022/09/04 10:25:41;;;;;;;9.73;4.70;;;;;;;25.17;60.09;101641.13;5093596;28;21044;-69
2022/09/04 10:28:18;;;;;;;5.78;3.72;;;;;;;25.32;60.29;101647.38;5093033;28;20418;-70
2022/09/04 10:31:07;;;;;;;8.02;4.15;;;;;;;25.48;60.94;101644.59;5094143;28;20028;-69
2022/09/04 10:33:59;;;;;;;7.43;3.80;;;;;;;25.61;59.44;101644.00;5076319;28;20040;-68
2022/09/04 10:37:12;;;;;;;5.72;3.35;;;;;;;25.75;59.09;101644.22;5094258;28;20085;-69
2022/09/04 10:42:51;;;;;;;6.30;3.10;;;;;;;25.92;58.25;101643.94;5093445;28;20038;-69
2022/09/04 10:45:29;;;;;;;3.08;2.65;;;;;;;25.67;57.37;101655.75;5093822;28;20028;-69
2022/09/04 10:48:06;;;;;;;4.00;2.72;;;;;;;25.31;57.69;101656.66;5093181;28;20034;-68
2022/09/04 10:50:32;;;;;;;3.88;3.13;;;;;;;25.11;58.54;101649.28;5093584;28;20020;-69
2022/09/04 10:53:29;;;;;;;5.32;3.50;;;;;;;25.01;59.99;101652.03;5093394;28;20036;-69
2022/09/04 10:56:11;;;;;;;5.82;4.00;;;;;;;24.90;59.87;101653.13;5093252;28;20073;-70
2022/09/04 10:59:08;;;;;;;7.20;3.13;;;;;;;24.78;61.32;101645.19;5093647;28;20042;-70
2022/09/04 11:02:16;;;;;;;2.90;2.33;;;;;;;24.72;60.38;101651.75;5093303;28;20028;-70
2022/09/04 11:04:52;;;;;;;3.83;3.05;;;;;;;24.69;60.68;101646.84;5074333;28;20171;-70
2022/09/04 11:07:41;;;;;;;5.22;2.42;;;;;;;24.69;60.17;101653.13;5093794;28;20028;-70
2022/09/04 11:10:24;;;;;;;3.97;2.40;;;;;;;24.74;58.32;101646.84;5092426;28;20107;-66
2022/09/04 11:12:57;;;;;;;5.15;2.78;;;;;;;24.77;58.99;101651.75;5092515;28;20356;-66
2022/09/04 11:15:25;;;;;;;4.43;2.70;;;;;;;24.87;57.36;101654.50;5093731;28;20514;-66
2022/09/04 11:17:59;;;;;;;3.17;2.38;;;;;;;25.05;57.46;101644.13;5092956;28;20032;-67
2022/09/04 11:20:31;;;;;;;2.75;2.33;;;;;;;25.14;56.11;101648.72;5092636;28;20514;-66
2022/09/04 11:23:05;;;;;;;;;;;;;;;25.22;58.62;101649.31;5093236;28;20076;-66
2022/09/04 11:26:04;;;;;;;3.80;2.53;;;;;;;25.07;55.09;101648.22;5093893;28;19912;-66
2022/09/04 11:28:51;;;;;;;5.38;2.92;;;;;;;25.08;56.75;101647.13;5092314;28;20058;-66
2022/09/04 11:31:25;;;;;;;2.45;2.17;;;;;;;25.38;54.52;101644.63;5092972;28;20019;-66
2022/09/04 11:33:50;;;;;;;4.40;2.00;;;;;;;25.68;53.17;101639.06;5094879;28;20039;-65
2022/09/04 11:36:24;;;;;;;2.27;1.87;;;;;;;25.90;52.06;101646.94;5097821;28;20028;-66
2022/09/04 11:39:18;;;;;;;2.67;1.98;;;;;;;26.18;53.46;101647.34;5096898;28;20028;-66
2022/09/04 11:42:08;;;;;;;6.88;1.80;;;;;;;26.36;50.17;101646.69;5097792;28;20024;-66
2022/09/04 11:45:02;;;;;;;4.07;2.00;;;;;;;26.43;49.60;101644.41;5096255;28;20019;-66
2022/09/04 11:47:45;;;;;;;3.10;2.00;;;;;;;26.36;49.25;101652.16;5096960;28;20028;-66
2022/09/04 11:50:20;;;;;;;3.85;2.83;;;;;;;26.43;48.93;101654.56;5095180;28;20024;-65
2022/09/04 11:53:20;;;;;;;4.20;2.22;;;;;;;26.49;49.29;101650.69;5096804;28;20030;-66
2022/09/04 11:56:11;;;;;;;2.45;2.03;;;;;;;26.55;49.25;101649.59;5081022;28;20028;-65
2022/09/04 11:58:57;;;;;;;4.88;2.58;;;;;;;26.58;46.98;101653.66;5097039;28;20099;-66
2022/09/04 12:01:26;;;;;;;4.13;3.08;;;;;;;26.58;46.49;101649.00;5096408;28;20016;-65
2022/09/04 12:04:03;;;;;;;3.05;2.33;;;;;;;26.47;44.44;101649.34;5097052;28;20043;-66
2022/09/04 12:07:12;;;;;;;2.88;2.53;;;;;;;26.52;46.70;101646.63;5095953;28;20495;-67
2022/09/04 12:10:12;;;;;;;3.33;2.22;;;;;;;26.58;46.42;101651.75;5054569;28;20048;-66
2022/09/04 12:12:59;;;;;;;4.22;2.50;;;;;;;26.59;45.40;101650.66;5096498;28;20020;-66
2022/09/04 12:16:03;;;;;;;5.25;2.95;;;;;;;26.69;47.17;101659.88;5096097;28;20554;-66
2022/09/04 12:19:08;;;;;;;4.22;2.60;;;;;;;26.78;46.46;101659.00;5096965;28;20023;-66
2022/09/04 12:22:06;;;;;;;3.50;2.15;;;;;;;26.85;45.33;101662.22;5095676;28;20079;-66
2022/09/04 12:24:52;;;;;;;3.58;2.63;;;;;;;26.92;45.34;101664.63;5096200;28;20116;-66
2022/09/04 12:27:38;;;;;;;5.45;2.88;;;;;;;26.95;44.36;101664.03;5093692;28;20024;-66
2022/09/04 12:30:06;;;;;;;3.50;2.67;;;;;;;26.97;44.02;101658.28;5092496;28;20055;-66
2022/09/04 12:33:18;;;;;;;4.93;2.72;;;;;;;27.03;46.16;101657.94;5092306;28;20032;-66
2022/09/04 12:36:28;;;;;;;3.63;2.70;;;;;;;27.07;45.77;101664.47;5072143;28;20050;-66